sim
Sign-in with your pilot id or email,
or register
Callsign
Passwort

Schedule Details

Flight Number: OEO6728
Departure: Munich Airport (EDDM) at 13:30
Arrival: Boston Logan International Airport (KBOS) at 22:45

Weather Information
Getting current METAR information for EDDM 210250Z 00000KT CAVOK 08/08 Q1016 NOSIG
Getting current METAR information for KBOS 210254Z 34005KT 10SM CLR 10/01 A3057 RMK AO2 SLP350 T01000011 51004

Schedule Frequency

Route Map